sensor_id;sensor_type;location;lat;lon;timestamp;pressure;altitude;pressure_sealevel;temperature;humidity
10897;BME280;5501;51.176;6.470;2023-04-04T00:01:15;102360.66;;;4.84;60.05
10897;BME280;5501;51.176;6.470;2023-04-04T00:06:17;102357.41;;;4.97;60.11
10897;BME280;5501;51.176;6.470;2023-04-04T00:11:19;102355.38;;;4.84;58.39
10897;BME280;5501;51.176;6.470;2023-04-04T00:16:22;102355.16;;;4.73;58.91
10897;BME280;5501;51.176;6.470;2023-04-04T00:21:23;102354.13;;;4.67;60.71
10897;BME280;5501;51.176;6.470;2023-04-04T00:26:27;102352.22;;;4.60;60.46
10897;BME280;5501;51.176;6.470;2023-04-04T00:31:28;102355.00;;;4.67;59.14
10897;BME280;5501;51.176;6.470;2023-04-04T00:36:30;102355.78;;;4.62;60.39
10897;BME280;5501;51.176;6.470;2023-04-04T00:41:36;102355.78;;;4.62;60.39
10897;BME280;5501;51.176;6.470;2023-04-04T00:46:38;102349.13;;;4.40;59.10
10897;BME280;5501;51.176;6.470;2023-04-04T00:51:39;102349.13;;;4.40;59.10
10897;BME280;5501;51.176;6.470;2023-04-04T00:56:41;102350.75;;;4.34;58.60
10897;BME280;5501;51.176;6.470;2023-04-04T01:01:42;102348.06;;;4.32;60.38
10897;BME280;5501;51.176;6.470;2023-04-04T01:06:44;102348.06;;;4.32;60.38
10897;BME280;5501;51.176;6.470;2023-04-04T01:11:46;102348.06;;;4.32;60.38
10897;BME280;5501;51.176;6.470;2023-04-04T01:16:50;102356.84;;;4.33;59.75
10897;BME280;5501;51.176;6.470;2023-04-04T01:21:54;102356.84;;;4.33;59.75
10897;BME280;5501;51.176;6.470;2023-04-04T01:26:57;102349.88;;;4.35;59.24
10897;BME280;5501;51.176;6.470;2023-04-04T01:37:10;102344.31;;;4.23;61.04
10897;BME280;5501;51.176;6.470;2023-04-04T01:42:15;102344.31;;;4.23;61.04
10897;BME280;5501;51.176;6.470;2023-04-04T01:47:19;102344.31;;;4.23;61.04
10897;BME280;5501;51.176;6.470;2023-04-04T01:52:21;102345.75;;;4.09;61.71
10897;BME280;5501;51.176;6.470;2023-04-04T01:57:22;102335.34;;;4.15;61.56
10897;BME280;5501;51.176;6.470;2023-04-04T02:02:24;102336.06;;;4.08;61.89
10897;BME280;5501;51.176;6.470;2023-04-04T02:07:25;102333.38;;;4.05;62.59
10897;BME280;5501;51.176;6.470;2023-04-04T02:12:27;102333.38;;;4.05;62.59
10897;BME280;5501;51.176;6.470;2023-04-04T02:17:28;102333.38;;;4.05;62.59
10897;BME280;5501;51.176;6.470;2023-04-04T02:22:30;102333.81;;;3.87;63.81
10897;BME280;5501;51.176;6.470;2023-04-04T02:27:31;102333.81;;;3.87;63.81
10897;BME280;5501;51.176;6.470;2023-04-04T02:37:36;57965.28;;;-140.81;49.82
10897;BME280;5501;51.176;6.470;2023-04-04T02:42:42;102333.81;;;3.87;63.81
10897;BME280;5501;51.176;6.470;2023-04-04T02:47:50;57965.28;;;-140.81;49.82
10897;BME280;5501;51.176;6.470;2023-04-04T02:52:59;78971.22;;;-140.81;63.81
10897;BME280;5501;51.176;6.470;2023-04-04T02:58:04;57965.28;;;-140.81;100.00
10897;BME280;5501;51.176;6.470;2023-04-04T03:03:06;57965.28;;;-140.81;nan
10897;BME280;5501;51.176;6.470;2023-04-04T03:08:13;112849.09;;;-140.81;63.81
10897;BME280;5501;51.176;6.470;2023-04-04T03:13:15;57965.28;;;-140.81;100.00
10897;BME280;5501;51.176;6.470;2023-04-04T03:18:18;57965.28;;;-140.81;nan
10897;BME280;5501;51.176;6.470;2023-04-04T03:23:19;57965.28;;;-140.81;100.00
10897;BME280;5501;51.176;6.470;2023-04-04T03:28:21;57965.28;;;-140.81;100.00
10897;BME280;5501;51.176;6.470;2023-04-04T03:33:23;57965.28;;;-140.81;100.00
10897;BME280;5501;51.176;6.470;2023-04-04T03:38:24;57965.28;;;-140.81;49.82
10897;BME280;5501;51.176;6.470;2023-04-04T03:43:27;57965.28;;;-140.81;100.00
10897;BME280;5501;51.176;6.470;2023-04-04T03:48:30;57965.28;;;-140.81;100.00
10897;BME280;5501;51.176;6.470;2023-04-04T03:53:32;57965.28;;;-140.81;100.00
10897;BME280;5501;51.176;6.470;2023-04-04T03:58:36;57965.28;;;-140.81;100.00
10897;BME280;5501;51.176;6.470;2023-04-04T04:08:39;57965.28;;;-140.81;100.00
10897;BME280;5501;51.176;6.470;2023-04-04T04:13:40;57965.28;;;-140.81;100.00
10897;BME280;5501;51.176;6.470;2023-04-04T04:18:42;57965.28;;;-140.81;100.00
10897;BME280;5501;51.176;6.470;2023-04-04T04:23:49;57965.28;;;-140.81;100.00
10897;BME280;5501;51.176;6.470;2023-04-04T04:28:50;57965.28;;;-140.81;100.00
10897;BME280;5501;51.176;6.470;2023-04-04T04:34:00;57965.28;;;-140.81;100.00
10897;BME280;5501;51.176;6.470;2023-04-04T04:39:04;57965.28;;;-140.81;100.00
10897;BME280;5501;51.176;6.470;2023-04-04T04:44:11;57965.28;;;-140.81;100.00
10897;BME280;5501;51.176;6.470;2023-04-04T04:49:13;57965.28;;;-140.81;100.00
10897;BME280;5501;51.176;6.470;2023-04-04T04:54:15;57965.28;;;-140.81;100.00
10897;BME280;5501;51.176;6.470;2023-04-04T04:59:18;57965.28;;;-140.81;100.00
10897;BME280;5501;51.176;6.470;2023-04-04T05:04:20;57965.28;;;-140.81;100.00
10897;BME280;5501;51.176;6.470;2023-04-04T05:09:36;57965.28;;;-140.81;100.00
10897;BME280;5501;51.176;6.470;2023-04-04T05:14:38;57965.28;;;-140.81;100.00
10897;BME280;5501;51.176;6.470;2023-04-04T05:19:40;57965.28;;;-140.81;100.00
10897;BME280;5501;51.176;6.470;2023-04-04T05:24:45;57965.28;;;-140.81;100.00
10897;BME280;5501;51.176;6.470;2023-04-04T05:29:49;57965.28;;;-140.81;100.00
10897;BME280;5501;51.176;6.470;2023-04-04T05:34:52;57965.28;;;-140.81;100.00
10897;BME280;5501;51.176;6.470;2023-04-04T05:39:54;57965.28;;;-140.81;100.00
10897;BME280;5501;51.176;6.470;2023-04-04T05:44:57;57965.28;;;-140.81;100.00
10897;BME280;5501;51.176;6.470;2023-04-04T05:50:02;57965.28;;;-140.81;100.00
10897;BME280;5501;51.176;6.470;2023-04-04T05:55:07;57965.28;;;-140.81;100.00
10897;BME280;5501;51.176;6.470;2023-04-04T06:00:10;57965.28;;;-140.81;100.00
10897;BME280;5501;51.176;6.470;2023-04-04T06:05:14;57965.28;;;-140.81;100.00
10897;BME280;5501;51.176;6.470;2023-04-04T06:10:16;57965.28;;;-140.81;100.00
10897;BME280;5501;51.176;6.470;2023-04-04T06:15:18;57965.28;;;-140.81;100.00
10897;BME280;5501;51.176;6.470;2023-04-04T06:31:14;57965.28;;;-140.81;100.00
10897;BME280;5501;51.176;6.470;2023-04-04T06:36:16;57965.28;;;-140.81;100.00
10897;BME280;5501;51.176;6.470;2023-04-04T06:41:20;57965.28;;;-140.81;100.00
10897;BME280;5501;51.176;6.470;2023-04-04T06:46:23;57965.28;;;-140.81;100.00
10897;BME280;5501;51.176;6.470;2023-04-04T06:51:27;57965.28;;;-140.81;nan
10897;BME280;5501;51.176;6.470;2023-04-04T06:56:29;57965.28;;;-140.81;100.00
10897;BME280;5501;51.176;6.470;2023-04-04T07:01:32;57965.28;;;-140.81;100.00
10897;BME280;5501;51.176;6.470;2023-04-04T07:06:33;57965.28;;;-140.81;100.00
10897;BME280;5501;51.176;6.470;2023-04-04T07:11:35;57965.28;;;-140.81;49.82
10897;BME280;5501;51.176;6.470;2023-04-04T07:16:36;57965.28;;;-140.81;63.81
10897;BME280;5501;51.176;6.470;2023-04-04T07:21:38;102333.81;;;3.87;63.81
10897;BME280;5501;51.176;6.470;2023-04-04T07:26:40;102333.81;;;-140.81;63.81
10897;BME280;5501;51.176;6.470;2023-04-04T07:31:41;102333.81;;;3.87;63.81
10897;BME280;5501;51.176;6.470;2023-04-04T07:36:43;102333.81;;;3.87;63.81
10897;BME280;5501;51.176;6.470;2023-04-04T07:41:44;102333.81;;;3.87;63.81
10897;BME280;5501;51.176;6.470;2023-04-04T07:46:46;102358.25;;;5.37;52.81
10897;BME280;5501;51.176;6.470;2023-04-04T07:51:56;102351.09;;;5.30;51.88
10897;BME280;5501;51.176;6.470;2023-04-04T07:56:57;102348.81;;;5.50;50.69
10897;BME280;5501;51.176;6.470;2023-04-04T08:01:58;102347.16;;;5.55;51.17
10897;BME280;5501;51.176;6.470;2023-04-04T08:07:00;102344.00;;;5.74;49.25
10897;BME280;5501;51.176;6.470;2023-04-04T08:12:01;102353.22;;;5.97;50.86
10897;BME280;5501;51.176;6.470;2023-04-04T08:17:03;102355.94;;;6.02;48.85
10897;BME280;5501;51.176;6.470;2023-04-04T08:22:04;102358.41;;;5.91;47.42
10897;BME280;5501;51.176;6.470;2023-04-04T08:27:06;102351.25;;;5.84;47.26
10897;BME280;5501;51.176;6.470;2023-04-04T08:32:07;102361.41;;;6.14;47.12
10897;BME280;5501;51.176;6.470;2023-04-04T08:37:09;102360.69;;;6.22;46.70
10897;BME280;5501;51.176;6.470;2023-04-04T08:42:11;102358.09;;;6.25;47.10
10897;BME280;5501;51.176;6.470;2023-04-04T08:47:16;102351.41;;;6.48;46.41
10897;BME280;5501;51.176;6.470;2023-04-04T08:52:19;102354.09;;;6.51;45.26
10897;BME280;5501;51.176;6.470;2023-04-04T08:57:23;102366.97;;;6.88;46.21
10897;BME280;5501;51.176;6.470;2023-04-04T09:07:35;102347.50;;;6.83;44.96
10897;BME280;5501;51.176;6.470;2023-04-04T09:12:40;102349.16;;;6.75;44.90
10897;BME280;5501;51.176;6.470;2023-04-04T09:17:42;102353.44;;;8.21;46.38
10897;BME280;5501;51.176;6.470;2023-04-04T09:22:44;102348.97;;;8.18;48.25
10897;BME280;5501;51.176;6.470;2023-04-04T09:27:46;102339.47;;;7.47;42.93
10897;BME280;5501;51.176;6.470;2023-04-04T09:32:49;102325.13;;;7.27;44.00
10897;BME280;5501;51.176;6.470;2023-04-04T09:37:50;102327.00;;;7.34;44.51
10897;BME280;5501;51.176;6.470;2023-04-04T09:42:53;102330.47;;;7.30;44.13
10897;BME280;5501;51.176;6.470;2023-04-04T09:47:55;102330.38;;;7.23;44.64
10897;BME280;5501;51.176;6.470;2023-04-04T09:52:56;102322.63;;;7.39;43.75
10897;BME280;5501;51.176;6.470;2023-04-04T09:58:02;102327.94;;;7.41;43.29
10897;BME280;5501;51.176;6.470;2023-04-04T10:03:12;102311.13;;;7.37;42.76
10897;BME280;5501;51.176;6.470;2023-04-04T10:08:19;102324.75;;;7.75;42.25
10897;BME280;5501;51.176;6.470;2023-04-04T10:13:22;102318.63;;;7.80;41.28
10897;BME280;5501;51.176;6.470;2023-04-04T10:18:25;102324.13;;;8.04;41.50
10897;BME280;5501;51.176;6.470;2023-04-04T10:23:27;102323.88;;;7.77;41.13
10897;BME280;5501;51.176;6.470;2023-04-04T10:28:29;102309.78;;;7.81;40.12
10897;BME280;5501;51.176;6.470;2023-04-04T10:33:38;102310.91;;;8.06;40.81
10897;BME280;5501;51.176;6.470;2023-04-04T10:38:41;102311.09;;;8.27;40.51
10897;BME280;5501;51.176;6.470;2023-04-04T10:43:44;102297.34;;;7.71;39.54
10897;BME280;5501;51.176;6.470;2023-04-04T10:48:47;102281.81;;;8.16;41.20
10897;BME280;5501;51.176;6.470;2023-04-04T10:53:49;102275.84;;;8.44;40.92
10897;BME280;5501;51.176;6.470;2023-04-04T10:59:07;102274.97;;;8.45;39.31
10897;BME280;5501;51.176;6.470;2023-04-04T11:04:16;102274.72;;;8.15;39.84
10897;BME280;5501;51.176;6.470;2023-04-04T11:14:53;102251.97;;;8.43;39.41
10897;BME280;5501;51.176;6.470;2023-04-04T11:19:58;102248.56;;;8.69;40.47
10897;BME280;5501;51.176;6.470;2023-04-04T11:25:00;102247.69;;;8.76;39.05
10897;BME280;5501;51.176;6.470;2023-04-04T11:30:21;102249.56;;;8.97;39.68
10897;BME280;5501;51.176;6.470;2023-04-04T11:35:23;102245.16;;;9.03;39.86
10897;BME280;5501;51.176;6.470;2023-04-04T11:40:37;102249.63;;;9.22;39.76
10897;BME280;5501;51.176;6.470;2023-04-04T11:45:43;102238.06;;;9.07;40.09
10897;BME280;5501;51.176;6.470;2023-04-04T11:50:45;102231.03;;;9.19;40.44
10897;BME280;5501;51.176;6.470;2023-04-04T11:55:50;102220.41;;;9.13;39.59
10897;BME280;5501;51.176;6.470;2023-04-04T12:00:51;102216.88;;;9.11;40.25
10897;BME280;5501;51.176;6.470;2023-04-04T12:05:53;102216.00;;;9.35;38.54
10897;BME280;5501;51.176;6.470;2023-04-04T12:10:54;102210.72;;;9.48;38.93
10897;BME280;5501;51.176;6.470;2023-04-04T12:15:56;102216.88;;;9.32;38.02
10897;BME280;5501;51.176;6.470;2023-04-04T12:20:57;102204.53;;;9.55;38.93
10897;BME280;5501;51.176;6.470;2023-04-04T12:25:59;102197.44;;;9.63;38.58
10897;BME280;5501;51.176;6.470;2023-04-04T12:31:04;102198.31;;;9.35;37.97
10897;BME280;5501;51.176;6.470;2023-04-04T12:36:06;102193.00;;;9.56;38.59
10897;BME280;5501;51.176;6.470;2023-04-04T12:41:08;102185.91;;;9.72;37.52
10897;BME280;5501;51.176;6.470;2023-04-04T12:46:17;102182.38;;;9.85;36.01
10897;BME280;5501;51.176;6.470;2023-04-04T12:51:18;102169.06;;;9.92;36.91
10897;BME280;5501;51.176;6.470;2023-04-04T12:56:20;102151.34;;;9.88;37.84
10897;BME280;5501;51.176;6.470;2023-04-04T13:01:25;102140.69;;;10.03;37.52
10897;BME280;5501;51.176;6.470;2023-04-04T13:06:27;102132.72;;;10.14;37.35
10897;BME280;5501;51.176;6.470;2023-04-04T13:17:00;102122.97;;;10.08;34.60
10897;BME280;5501;51.176;6.470;2023-04-04T13:22:02;102117.66;;;10.10;35.23
10897;BME280;5501;51.176;6.470;2023-04-04T13:27:03;102116.69;;;10.30;36.86
10897;BME280;5501;51.176;6.470;2023-04-04T13:32:05;102112.13;;;10.55;34.64
10897;BME280;5501;51.176;6.470;2023-04-04T13:37:06;102104.31;;;10.20;35.64
10897;BME280;5501;51.176;6.470;2023-04-04T13:42:08;102092.75;;;10.30;36.12
10897;BME280;5501;51.176;6.470;2023-04-04T13:47:09;102090.97;;;10.29;36.49
10897;BME280;5501;51.176;6.470;2023-04-04T13:52:11;102081.97;;;10.53;36.49
10897;BME280;5501;51.176;6.470;2023-04-04T13:57:12;102082.94;;;10.41;34.68
10897;BME280;5501;51.176;6.470;2023-04-04T14:02:13;102064.25;;;10.53;33.97
10897;BME280;5501;51.176;6.470;2023-04-04T14:07:16;102069.44;;;10.72;33.67
10897;BME280;5501;51.176;6.470;2023-04-04T14:12:17;102060.53;;;10.76;35.19
10897;BME280;5501;51.176;6.470;2023-04-04T14:17:19;102048.78;;;11.07;35.62
10897;BME280;5501;51.176;6.470;2023-04-04T14:22:20;102050.41;;;11.23;35.01
10897;BME280;5501;51.176;6.470;2023-04-04T14:27:21;102046.19;;;11.01;34.18
10897;BME280;5501;51.176;6.470;2023-04-04T14:32:23;102045.53;;;10.69;33.42
10897;BME280;5501;51.176;6.470;2023-04-04T14:37:25;102038.41;;;10.75;33.65
10897;BME280;5501;51.176;6.470;2023-04-04T14:42:27;102014.06;;;11.19;35.37
10897;BME280;5501;51.176;6.470;2023-04-04T14:47:28;102016.72;;;11.16;34.96
10897;BME280;5501;51.176;6.470;2023-04-04T14:52:29;102020.53;;;10.88;34.01
10897;BME280;5501;51.176;6.470;2023-04-04T14:57:31;102011.72;;;10.80;34.94
10897;BME280;5501;51.176;6.470;2023-04-04T15:02:47;102007.78;;;11.24;35.20
10897;BME280;5501;51.176;6.470;2023-04-04T15:07:49;102008.53;;;11.37;34.73
10897;BME280;5501;51.176;6.470;2023-04-04T15:12:50;101997.75;;;11.49;34.05
10897;BME280;5501;51.176;6.470;2023-04-04T15:17:51;101999.44;;;11.56;34.02
10897;BME280;5501;51.176;6.470;2023-04-04T15:22:53;101992.41;;;11.49;33.76
10897;BME280;5501;51.176;6.470;2023-04-04T15:27:54;101993.88;;;11.77;33.41
10897;BME280;5501;51.176;6.470;2023-04-04T15:32:56;101996.09;;;11.40;32.86
10897;BME280;5501;51.176;6.470;2023-04-04T15:37:57;101984.59;;;11.34;32.71
10897;BME280;5501;51.176;6.470;2023-04-04T15:42:58;101983.59;;;11.42;33.93
10897;BME280;5501;51.176;6.470;2023-04-04T15:48:00;101987.22;;;11.37;34.78
10897;BME280;5501;51.176;6.470;2023-04-04T15:53:03;101974.25;;;11.05;34.21
10897;BME280;5501;51.176;6.470;2023-04-04T15:58:04;101972.50;;;11.00;33.98
10897;BME280;5501;51.176;6.470;2023-04-04T16:03:06;101960.34;;;11.61;34.21
10897;BME280;5501;51.176;6.470;2023-04-04T16:08:07;101960.09;;;11.82;34.50
10897;BME280;5501;51.176;6.470;2023-04-04T16:13:09;101948.00;;;11.51;33.78
10897;BME280;5501;51.176;6.470;2023-04-04T16:18:11;101953.31;;;11.54;32.77
10897;BME280;5501;51.176;6.470;2023-04-04T16:23:12;101960.53;;;11.41;34.07
10897;BME280;5501;51.176;6.470;2023-04-04T16:28:14;101948.03;;;11.48;34.55
10897;BME280;5501;51.176;6.470;2023-04-04T16:33:16;101942.31;;;11.04;34.17
10897;BME280;5501;51.176;6.470;2023-04-04T16:38:17;101941.34;;;11.11;34.25
10897;BME280;5501;51.176;6.470;2023-04-04T16:43:18;101935.31;;;10.97;33.82
10897;BME280;5501;51.176;6.470;2023-04-04T16:48:20;101934.56;;;10.80;33.54
10897;BME280;5501;51.176;6.470;2023-04-04T16:53:21;101924.78;;;10.85;34.40
10897;BME280;5501;51.176;6.470;2023-04-04T16:58:23;101924.94;;;10.65;34.69
10897;BME280;5501;51.176;6.470;2023-04-04T17:03:24;101920.38;;;10.79;34.86
10897;BME280;5501;51.176;6.470;2023-04-04T17:08:26;101925.81;;;10.69;35.60
10897;BME280;5501;51.176;6.470;2023-04-04T17:13:28;101925.09;;;10.50;36.85
10897;BME280;5501;51.176;6.470;2023-04-04T17:18:29;101923.38;;;10.44;36.32
10897;BME280;5501;51.176;6.470;2023-04-04T17:23:31;101924.28;;;10.37;36.80
10897;BME280;5501;51.176;6.470;2023-04-04T17:28:32;101916.31;;;10.36;36.20
10897;BME280;5501;51.176;6.470;2023-04-04T17:33:34;101921.78;;;10.21;36.77
10897;BME280;5501;51.176;6.470;2023-04-04T17:38:35;101919.13;;;10.16;37.76
10897;BME280;5501;51.176;6.470;2023-04-04T17:43:37;101915.69;;;9.96;37.54
10897;BME280;5501;51.176;6.470;2023-04-04T17:48:38;101918.44;;;9.81;38.32
10897;BME280;5501;51.176;6.470;2023-04-04T17:53:39;101912.22;;;9.85;38.35
10897;BME280;5501;51.176;6.470;2023-04-04T17:58:41;101914.09;;;9.68;38.70
10897;BME280;5501;51.176;6.470;2023-04-04T18:03:43;101921.25;;;9.54;39.32
10897;BME280;5501;51.176;6.470;2023-04-04T18:08:45;101917.66;;;9.64;40.33
10897;BME280;5501;51.176;6.470;2023-04-04T18:13:47;101909.78;;;9.37;40.67
10897;BME280;5501;51.176;6.470;2023-04-04T18:18:48;101914.25;;;9.31;40.96
10897;BME280;5501;51.176;6.470;2023-04-04T18:23:50;101914.31;;;9.17;42.23
10897;BME280;5501;51.176;6.470;2023-04-04T18:28:51;101912.53;;;9.16;41.26
10897;BME280;5501;51.176;6.470;2023-04-04T18:33:53;101921.38;;;9.12;42.45
10897;BME280;5501;51.176;6.470;2023-04-04T18:38:55;101929.34;;;9.14;41.41
10897;BME280;5501;51.176;6.470;2023-04-04T18:43:57;101927.59;;;8.96;42.67
10897;BME280;5501;51.176;6.470;2023-04-04T18:48:58;101928.50;;;8.98;43.09
10897;BME280;5501;51.176;6.470;2023-04-04T18:53:59;101912.59;;;8.95;43.09
10897;BME280;5501;51.176;6.470;2023-04-04T18:59:01;101916.09;;;9.00;42.86
10897;BME280;5501;51.176;6.470;2023-04-04T19:04:02;101926.72;;;9.00;42.85
10897;BME280;5501;51.176;6.470;2023-04-04T19:09:04;101929.38;;;9.03;43.57
10897;BME280;5501;51.176;6.470;2023-04-04T19:14:06;101938.25;;;8.95;42.62
10897;BME280;5501;51.176;6.470;2023-04-04T19:19:10;101932.94;;;8.90;44.49
10897;BME280;5501;51.176;6.470;2023-04-04T19:24:12;101937.34;;;8.88;43.23
10897;BME280;5501;51.176;6.470;2023-04-04T19:29:17;101942.69;;;8.73;43.52
10897;BME280;5501;51.176;6.470;2023-04-04T19:34:19;101947.09;;;8.68;43.74
10897;BME280;5501;51.176;6.470;2023-04-04T19:39:21;101951.53;;;8.68;44.28
10897;BME280;5501;51.176;6.470;2023-04-04T19:44:23;101961.25;;;8.55;44.39
10897;BME280;5501;51.176;6.470;2023-04-04T19:49:25;101948.00;;;8.40;44.97
10897;BME280;5501;51.176;6.470;2023-04-04T19:54:33;101947.97;;;8.54;45.42
10897;BME280;5501;51.176;6.470;2023-04-04T20:04:42;101956.81;;;8.39;45.54
10897;BME280;5501;51.176;6.470;2023-04-04T20:09:43;101958.63;;;8.40;45.79
10897;BME280;5501;51.176;6.470;2023-04-04T20:14:44;101948.00;;;8.45;46.23
10897;BME280;5501;51.176;6.470;2023-04-04T20:19:46;101953.28;;;8.33;46.34
10897;BME280;5501;51.176;6.470;2023-04-04T20:24:48;101951.50;;;8.39;47.31
10897;BME280;5501;51.176;6.470;2023-04-04T20:29:51;101949.72;;;8.23;47.48
10897;BME280;5501;51.176;6.470;2023-04-04T20:34:53;101955.91;;;8.21;46.74
10897;BME280;5501;51.176;6.470;2023-04-04T20:39:58;101956.75;;;8.09;47.13
10897;BME280;5501;51.176;6.470;2023-04-04T20:55:18;101956.75;;;8.09;48.87
10897;BME280;5501;51.176;6.470;2023-04-04T21:05:28;101953.16;;;7.89;48.35
10897;BME280;5501;51.176;6.470;2023-04-04T21:15:37;101940.78;;;7.85;48.44
10897;BME280;5501;51.176;6.470;2023-04-04T21:25:41;101942.53;;;7.77;50.18
10897;BME280;5501;51.176;6.470;2023-04-04T21:30:44;101937.25;;;7.77;49.98
10897;BME280;5501;51.176;6.470;2023-04-04T21:35:47;101941.59;;;7.57;51.83
10897;BME280;5501;51.176;6.470;2023-04-04T21:40:49;101932.78;;;7.63;51.91
10897;BME280;5501;51.176;6.470;2023-04-04T21:45:50;101923.00;;;7.39;54.44
10897;BME280;5501;51.176;6.470;2023-04-04T21:50:52;101918.66;;;7.59;51.62
10897;BME280;5501;51.176;6.470;2023-04-04T21:55:53;101912.38;;;7.30;52.04
10897;BME280;5501;51.176;6.470;2023-04-04T22:00:54;101910.59;;;7.26;52.68
10897;BME280;5501;51.176;6.470;2023-04-04T22:05:56;101915.03;;;7.35;52.60
10897;BME280;5501;51.176;6.470;2023-04-04T22:10:57;101924.63;;;7.13;52.87
10897;BME280;5501;51.176;6.470;2023-04-04T22:16:02;101906.91;;;7.00;52.75
10897;BME280;5501;51.176;6.470;2023-04-04T22:21:06;101914.03;;;7.10;52.99
10897;BME280;5501;51.176;6.470;2023-04-04T22:26:09;101905.16;;;7.05;55.35
10897;BME280;5501;51.176;6.470;2023-04-04T22:31:11;101908.69;;;6.98;55.61
10897;BME280;5501;51.176;6.470;2023-04-04T22:36:12;101913.91;;;6.86;56.52
10897;BME280;5501;51.176;6.470;2023-04-04T22:41:16;101906.72;;;6.73;55.90
10897;BME280;5501;51.176;6.470;2023-04-04T22:46:17;101903.25;;;6.79;55.46
10897;BME280;5501;51.176;6.470;2023-04-04T22:51:20;101907.50;;;6.59;56.90
10897;BME280;5501;51.176;6.470;2023-04-04T22:56:22;101907.50;;;6.59;56.90
10897;BME280;5501;51.176;6.470;2023-04-04T23:01:24;101902.09;;;6.39;60.59
10897;BME280;5501;51.176;6.470;2023-04-04T23:06:25;101898.63;;;6.46;60.17
10897;BME280;5501;51.176;6.470;2023-04-04T23:11:29;57965.28;;;-140.81;47.30
10897;BME280;5501;51.176;6.470;2023-04-04T23:16:30;78279.47;;;-140.81;60.17
10897;BME280;5501;51.176;6.470;2023-04-04T23:21:32;101898.63;;;6.46;60.17
10897;BME280;5501;51.176;6.470;2023-04-04T23:26:33;101898.63;;;6.46;60.17
10897;BME280;5501;51.176;6.470;2023-04-04T23:31:35;101898.63;;;6.46;60.17
10897;BME280;5501;51.176;6.470;2023-04-04T23:36:36;78279.47;;;-140.81;60.17
10897;BME280;5501;51.176;6.470;2023-04-04T23:41:37;101898.63;;;6.46;60.17
10897;BME280;5501;51.176;6.470;2023-04-04T23:46:39;57965.28;;;-140.81;100.00
10897;BME280;5501;51.176;6.470;2023-04-04T23:51:41;101898.63;;;6.46;60.17
10897;BME280;5501;51.176;6.470;2023-04-04T23:56:43;57965.28;;;-140.81;47.30
